Maersk Iowa — KABL — position and weather

sailwx.info

Track history (hours):
 
Tides and Currents Weather Stations Pressure Air Temp Water Temp Dewpoint Dewpoint Depression Visibility Wind Speed Wind Dir Waves Ship Positions

Maersk Iowa

Owner: FARRELL LINES INC, Norfolk, VA. More information available from US FCC via Universal Licensing System and Coast Guard Vessel Documentation Center.

Last reported at 2014-Oct-01 03:33 UTC. Time now 2014-Oct-01 04:11 UTC.
Position N 51°57' E 004°03'.

Length 292 m; draft 12.2 m.

Type: Ship (hazmat cat A). MMSI: 367606000.

Date/timePositionNaut miles runAvg speedWind from/ knotsBaromVisibWave heightAir tempDewpointWater temp
2014-Oct-01 03:33N 51°57' E 004°03'0 0.0
2014-Oct-01 02:33N 51°57' E 004°03'0 0.0
2014-Oct-01 01:33N 51°57' E 004°03'0 0.0
2014-Oct-01 00:33N 51°57' E 004°03'0 0.0
2014-Sep-30 23:33N 51°57' E 004°03'0 0.0
2014-Sep-30 22:33N 51°57' E 004°03'0 0.0
2014-Sep-30 21:33N 51°57' E 004°03'0 0.0
2014-Sep-30 20:33N 51°58' E 004°03'0 0.0
2014-Sep-30 19:33N 51°57' E 004°03'0 0.0
2014-Sep-30 18:33N 51°57' E 004°03'0 0.0
2014-Sep-30 17:33N 51°57' E 004°03'0 0.0
2014-Sep-30 16:33N 51°57' E 004°03'0 0.0
2014-Sep-30 15:33N 51°57' E 004°03'0 0.0
2014-Sep-30 14:33N 51°57' E 004°03'0 0.0
2014-Sep-30 13:33N 51°57' E 004°03'0 0.0
2014-Sep-30 12:33N 51°57' E 004°03'0 0.0
2014-Sep-30 11:33N 51°57' E 004°03'0 0.0
2014-Sep-30 10:33N 51°57' E 004°03'0 0.0
2014-Sep-30 09:33N 51°57' E 004°03'2 1.7
2014-Sep-30 08:33N 51°59' E 004°05'8 8.5
2014-Sep-30 07:33N 52°00' E 003°51'1211.5
2014-Sep-30 06:33N 51°56' E 003°34'1212.0
2014-Sep-30 05:32N 51°53' E 003°14'1613.4
2014-Sep-30 04:18N 51°49' E 002°49'1520.4
2014-Sep-30 03:33N 51°39' E 002°29'2020.4
2014-Sep-30 02:33N 51°25' E 002°07'2020.4
2014-Sep-30 01:33N 51°10' E 001°45'2619.6
2014-Sep-30 00:15N 50°48' E 001°23'1518.8
2014-Sep-29 23:27N 50°36' E 001°09'1819.7
2014-Sep-29 22:33N 50°28' E 000°44'2020.1
2014-Sep-29 21:33N 50°23' E 000°14'27017.4
2014-Sep-29 06:00N 49°24' W 006°36'30016.7 060 / 61019.210.8 17.013.518.4
2014-Sep-28 12:00N 49°42' W 014°18'10116.8 170 / 81020.010.8 0.520.014.918.1
2014-Sep-28 06:00N 49°42' W 016°54'10517.5 190 / 121017.910.8 18.014.617.7
2014-Sep-28 00:00N 49°36' W 019°36'9415.6 140 / 101019.010.8 0.517.013.517.2
2014-Sep-27 18:00N 49°30' W 022°00'60816.9 240 / 81017.310.8 1.519.013.817.0
2014-Sep-26 06:00N 47°30' W 037°00'50416.8 280 / 411020.010.8 14.010.217.0
2014-Sep-25 00:00N 44°30' W 048°18'30416.9 360 / 141030.010.8 2.013.0 6.814.0
2014-Sep-24 06:00N 42°12' W 054°30'10517.6 340 / 181023.010.8 20.013.023.0
2014-Sep-24 00:00N 41°24' W 056°36'18015.0 310 / 111022.010.8 1.020.016.724.0
2014-Sep-23 12:00N 40°30' W 060°24'10617.6 320 / 151022.210.8 1.523.018.325.8
2014-Sep-23 06:00N 40°18' W 062°42'25016.1 050 / 121016.310.8 2.024.019.427.7
2014-Sep-22 14:27N 40°18' W 068°10'1617.5
2014-Sep-22 13:31N 40°21' W 068°31'1717.7
2014-Sep-22 12:34N 40°24' W 068°53'1917.7
2014-Sep-22 11:29N 40°27' W 069°18'1917.8
2014-Sep-22 10:27N 40°26' W 069°42'1617.9
2014-Sep-22 09:33N 40°26' W 070°03'1817.7
2014-Sep-22 08:33N 40°25' W 070°26'1817.6
2014-Sep-22 07:33N 40°24' W 070°49'1817.8
2014-Sep-22 06:33N 40°24' W 071°13'1818.3
2014-Sep-22 05:34N 40°23' W 071°37'1818.3
2014-Sep-22 04:33N 40°22' W 072°01'1818.3
2014-Sep-22 03:33N 40°22' W 072°25'1818.1
2014-Sep-22 02:33N 40°22' W 072°49'1818.4
2014-Sep-22 01:33N 40°22' W 073°13'1818.0
2014-Sep-22 00:33N 40°25' W 073°36'1615.8
2014-Sep-21 23:33N 40°30' W 073°56'1211.5
2014-Sep-21 22:33N 40°39' W 074°04'3 3.4
2014-Sep-21 21:33N 40°40' W 074°09'0 0.0
2014-Sep-21 20:33N 40°40' W 074°09'0 0.0
2014-Sep-21 19:32N 40°40' W 074°09'0 0.0
2014-Sep-21 18:32N 40°40' W 074°09'0 0.0
2014-Sep-21 17:08N 40°40' W 074°09'0 0.0
2014-Sep-21 16:29N 40°40' W 074°09'0 0.0
2014-Sep-21 15:23N 40°40' W 074°09'0 0.0
2014-Sep-21 14:20N 40°40' W 074°09'0 0.0
2014-Sep-21 12:08N 40°40' W 074°09'0 0.0
2014-Sep-21 11:09N 40°40' W 074°09'0 0.6
2014-Sep-21 10:30N 40°39' W 074°09'6 4.8
2014-Sep-21 09:15N 40°36' W 074°02'1710.2
2014-Sep-21 07:33N 40°23' W 073°48'9 7.8
2014-Sep-21 06:21N 40°13' W 073°46'14 7.8
2014-Sep-21 04:31N 39°59' W 073°44'7 7.7
2014-Sep-21 03:34N 39°52' W 073°42'  
Track history (hours):
 
Tides and Currents Weather Stations Pressure Air Temp Water Temp Dewpoint Dewpoint Depression Visibility Wind Speed Wind Dir Waves Ship Positions

Maersk Iowa

Owner: FARRELL LINES INC, Norfolk, VA. More information available from US FCC via Universal Licensing System and Coast Guard Vessel Documentation Center.

Last reported at 2014-Oct-01 03:33 UTC. Time now 2014-Oct-01 04:11 UTC.
Position N 51°57' E 004°03'.

Length 292 m; draft 12.2 m.

Type: Ship (hazmat cat A). MMSI: 367606000.

Date/timePositionNaut miles runAvg speedWind from/ knotsBaromVisibWave heightAir tempDewpointWater temp
2014-Oct-01 03:33N 51°57' E 004°03'0 0.0
2014-Oct-01 02:33N 51°57' E 004°03'0 0.0
2014-Oct-01 01:33N 51°57' E 004°03'0 0.0
2014-Oct-01 00:33N 51°57' E 004°03'0 0.0
2014-Sep-30 23:33N 51°57' E 004°03'0 0.0
2014-Sep-30 22:33N 51°57' E 004°03'0 0.0
2014-Sep-30 21:33N 51°57' E 004°03'0 0.0
2014-Sep-30 20:33N 51°58' E 004°03'0 0.0
2014-Sep-30 19:33N 51°57' E 004°03'0 0.0
2014-Sep-30 18:33N 51°57' E 004°03'0 0.0
2014-Sep-30 17:33N 51°57' E 004°03'0 0.0
2014-Sep-30 16:33N 51°57' E 004°03'0 0.0
2014-Sep-30 15:33N 51°57' E 004°03'0 0.0
2014-Sep-30 14:33N 51°57' E 004°03'0 0.0
2014-Sep-30 13:33N 51°57' E 004°03'0 0.0
2014-Sep-30 12:33N 51°57' E 004°03'0 0.0
2014-Sep-30 11:33N 51°57' E 004°03'0 0.0
2014-Sep-30 10:33N 51°57' E 004°03'0 0.0
2014-Sep-30 09:33N 51°57' E 004°03'2 1.7
2014-Sep-30 08:33N 51°59' E 004°05'8 8.5
2014-Sep-30 07:33N 52°00' E 003°51'1211.5
2014-Sep-30 06:33N 51°56' E 003°34'1212.0
2014-Sep-30 05:32N 51°53' E 003°14'1613.4
2014-Sep-30 04:18N 51°49' E 002°49'1520.4
2014-Sep-30 03:33N 51°39' E 002°29'2020.4
2014-Sep-30 02:33N 51°25' E 002°07'2020.4
2014-Sep-30 01:33N 51°10' E 001°45'2619.6
2014-Sep-30 00:15N 50°48' E 001°23'1518.8
2014-Sep-29 23:27N 50°36' E 001°09'1819.7
2014-Sep-29 22:33N 50°28' E 000°44'2020.1
2014-Sep-29 21:33N 50°23' E 000°14'27017.4
2014-Sep-29 06:00N 49°24' W 006°36'30016.7 060 / 61019.210.8 17.013.518.4
2014-Sep-28 12:00N 49°42' W 014°18'10116.8 170 / 81020.010.8 0.520.014.918.1
2014-Sep-28 06:00N 49°42' W 016°54'10517.5 190 / 121017.910.8 18.014.617.7
2014-Sep-28 00:00N 49°36' W 019°36'9415.6 140 / 101019.010.8 0.517.013.517.2
2014-Sep-27 18:00N 49°30' W 022°00'60816.9 240 / 81017.310.8 1.519.013.817.0
2014-Sep-26 06:00N 47°30' W 037°00'50416.8 280 / 411020.010.8 14.010.217.0
2014-Sep-25 00:00N 44°30' W 048°18'30416.9 360 / 141030.010.8 2.013.0 6.814.0
2014-Sep-24 06:00N 42°12' W 054°30'10517.6 340 / 181023.010.8 20.013.023.0
2014-Sep-24 00:00N 41°24' W 056°36'18015.0 310 / 111022.010.8 1.020.016.724.0
2014-Sep-23 12:00N 40°30' W 060°24'10617.6 320 / 151022.210.8 1.523.018.325.8
2014-Sep-23 06:00N 40°18' W 062°42'25016.1 050 / 121016.310.8 2.024.019.427.7
2014-Sep-22 14:27N 40°18' W 068°10'1617.5
2014-Sep-22 13:31N 40°21' W 068°31'1717.7
2014-Sep-22 12:34N 40°24' W 068°53'1917.7
2014-Sep-22 11:29N 40°27' W 069°18'1917.8
2014-Sep-22 10:27N 40°26' W 069°42'1617.9
2014-Sep-22 09:33N 40°26' W 070°03'1817.7
2014-Sep-22 08:33N 40°25' W 070°26'1817.6
2014-Sep-22 07:33N 40°24' W 070°49'1817.8
2014-Sep-22 06:33N 40°24' W 071°13'1818.3
2014-Sep-22 05:34N 40°23' W 071°37'1818.3
2014-Sep-22 04:33N 40°22' W 072°01'1818.3
2014-Sep-22 03:33N 40°22' W 072°25'1818.1
2014-Sep-22 02:33N 40°22' W 072°49'1818.4
2014-Sep-22 01:33N 40°22' W 073°13'1818.0
2014-Sep-22 00:33N 40°25' W 073°36'1615.8
2014-Sep-21 23:33N 40°30' W 073°56'1211.5
2014-Sep-21 22:33N 40°39' W 074°04'3 3.4
2014-Sep-21 21:33N 40°40' W 074°09'0 0.0
2014-Sep-21 20:33N 40°40' W 074°09'0 0.0
2014-Sep-21 19:32N 40°40' W 074°09'0 0.0
2014-Sep-21 18:32N 40°40' W 074°09'0 0.0
2014-Sep-21 17:08N 40°40' W 074°09'0 0.0
2014-Sep-21 16:29N 40°40' W 074°09'0 0.0
2014-Sep-21 15:23N 40°40' W 074°09'0 0.0
2014-Sep-21 14:20N 40°40' W 074°09'0 0.0
2014-Sep-21 12:08N 40°40' W 074°09'0 0.0
2014-Sep-21 11:09N 40°40' W 074°09'0 0.6
2014-Sep-21 10:30N 40°39' W 074°09'6 4.8
2014-Sep-21 09:15N 40°36' W 074°02'1710.2
2014-Sep-21 07:33N 40°23' W 073°48'9 7.8
2014-Sep-21 06:21N 40°13' W 073°46'14 7.8
2014-Sep-21 04:31N 39°59' W 073°44'7 7.7
2014-Sep-21 03:34N 39°52' W 073°42'  

Dump ship's entire track history